Weather observations for the past three days for
Rochester, Rochester International Airport
| Date | Time (cdt) | Wind (kph) | Vis. (km) | Weather | Sky Cond. | Temperature (ºC) | Relative Humidity | Wind Chill (°C) | Heat Index (°C) | Pressure | Precipitation (cm) | ||||||
|---|---|---|---|---|---|---|---|---|---|---|---|---|---|---|---|---|---|
| Air | Dwpt | 6 hour | altimeter (cm) | sea level (mb) | 1 hr | 3 hr | 6 hr | ||||||||||
| Max. | Min. | ||||||||||||||||
| 06 | 02:54 | NW 15 | 16.09 | Fair | CLR | 1.1 | -5 | 64% | -3 | 76.02 | 1014.5 | ||||||
| 06 | 01:54 | NW 15 | 16.09 | Fair | CLR | 2.2 | -5 | 59% | -1 | 76 | 1013.9 | ||||||
| 06 | 00:54 | NW 17 | 16.09 | Fair | CLR | 3.3 | -5 | 8.9 | 3.3 | 55% | -0 | 75.97 | 1013.5 | ||||
| 05 | 23:54 | NW 20 | 16.09 | Fair | CLR | 4.4 | -5 | 51% | 1 | 75.95 | 1013.3 | ||||||
| 05 | 22:54 | NW 15 | 16.09 | A Few Clouds | FEW075 | 5 | -5 | 49% | 2 | 75.92 | 1013.0 | ||||||
| 05 | 21:54 | W 9 | 14.48 | A Few Clouds | FEW080 | 5.6 | -5 | 47% | 4 | 75.9 | 1012.8 | ||||||
| 05 | 20:54 | NW 20 | 16.09 | Overcast | OVC080 | 7.8 | -5.6 | 38% | 5 | 75.87 | 1012.0 | ||||||
| 05 | 19:54 | NW 24 | 14.48 | Overcast | OVC080 | 8.3 | -6.7 | 34% | 5 | 75.82 | 1011.5 | ||||||
| 05 | 18:54 | NW 26 | 14.48 | Mostly Cloudy | BKN080 | 8.9 | -6.7 | 11.1 | 8.9 | 33% | 6 | 75.79 | 1011.1 | ||||
| 05 | 17:54 | NW 24 | 14.48 | Overcast | OVC080 | 9.4 | -6.7 | 32% | 7 | 75.77 | 1011.2 | ||||||
| 05 | 16:54 | NW 26 | 11.27 | Overcast | OVC070 | 9.4 | -6.7 | 32% | 6 | 75.77 | 1011.0 | ||||||
| 05 | 15:54 | NW 24 G 39 | 9.66 | Mostly Cloudy with Haze | SCT065 BKN075 | 10 | -6.7 | 30% | 7 | 75.79 | 1011.4 | ||||||
| 05 | 14:54 | NW 22 G 44 | 12.87 | Mostly Cloudy | BKN070 | 10 | -6.1 | 32% | 7 | 75.82 | 1011.6 | ||||||
| 05 | 13:54 | NW 26 G 50 | 11.27 | Mostly Cloudy | BKN070 | 9.4 | -6.7 | 32% | 6 | 75.82 | 1011.7 | ||||||
| 05 | 12:54 | NW 28 G 41 | 12.87 | Mostly Cloudy | BKN065 | 8.9 | -6.7 | 10.6 | 2.8 | 33% | 6 | 75.82 | 1011.5 | ||||
| 05 | 11:54 | NW 19 G 41 | 14.48 | Mostly Cloudy | BKN065 | 8.3 | -6.7 | 34% | 6 | 75.82 | 1011.4 | ||||||
| 05 | 10:54 | NW 30 G 41 | 14.48 | Mostly Cloudy | BKN055 | 8.3 | -6.1 | 36% | 5 | 75.82 | 1011.6 | ||||||
| 05 | 09:54 | NW 24 G 35 | 14.48 | Fair | CLR | 7.2 | -5.6 | 40% | 4 | 75.79 | 1011.1 | ||||||
| 05 | 08:54 | NW 19 | 14.48 | Fair | CLR | 6.1 | -5 | 45% | 3 | 75.79 | 1011.2 | ||||||
| 05 | 07:54 | NW 17 | 14.48 | Fair | CLR | 4.4 | -3.3 | 58% | 1 | 75.77 | 1010.7 | ||||||
| 05 | 06:54 | W 15 | 12.87 | Fair | CLR | 2.8 | -3.9 | 6.1 | 1.7 | 62% | -1 | 75.69 | 1009.8 | ||||
| 05 | 05:54 | W 13 | 16.09 | Fair | CLR | 1.7 | -4.4 | 64% | -2 | 75.62 | 1008.7 | ||||||
| 05 | 04:54 | NW 15 | 16.09 | Fair | CLR | 2.8 | -4.4 | 59% | -1 | 75.57 | 1008.1 | ||||||
| 05 | 03:54 | W 15 | 16.09 | Fair | CLR | 3.3 | -4.4 | 57% | 0 | 75.57 | 1007.9 | ||||||
| 05 | 02:54 | NW 19 | 16.09 | Fair | CLR | 5 | -4.4 | 51% | 2 | 75.51 | 1006.9 | ||||||
| 05 | 01:54 | NW 20 | 16.09 | Fair | CLR | 6.1 | -4.4 | 47% | 3 | 75.49 | 1006.6 | ||||||
| 05 | 00:54 | W 13 | 16.09 | Fair | CLR | 5.6 | -3.9 | 13.3 | 5.6 | 51% | 3 | 75.49 | 1006.6 | ||||
| 04 | 23:54 | NW 13 | 16.09 | Fair | CLR | 6.1 | -4.4 | 47% | 4 | 75.49 | 1006.7 | ||||||
| 04 | 22:54 | NW 24 | 16.09 | Fair | CLR | 7.2 | -5 | 42% | 4 | 75.49 | 1006.6 | ||||||
| 04 | 21:54 | NW 28 G 54 | 16.09 | Fair | CLR | 8.9 | -3.9 | 41% | 6 | 75.46 | 1005.9 | ||||||
| 04 | 20:54 | NW 33 G 44 | 16.09 | Fair and Breezy | CLR | 9.4 | -3.3 | 41% | 6 | 75.36 | 1004.6 | ||||||
| 04 | 19:54 | NW 35 G 54 | 14.48 | Fair and Breezy | CLR | 11.1 | -2.8 | 38% | 75.26 | 1003.4 | |||||||
| 04 | 18:54 | NW 41 G 52 | 14.48 | Fair and Breezy | CLR | 13.3 | -2.2 | 19.4 | 13.3 | 34% | 75.23 | 1003.1 | |||||
| 04 | 17:54 | NW 46 G 59 | 16.09 | Fair and Windy | CLR | 15 | -2.8 | 29% | 75.18 | 1002.4 | |||||||
| 04 | 16:54 | W 43 G 59 | 16.09 | Fair and Windy | CLR | 16.1 | -2.2 | 29% | 75.11 | 1001.5 | |||||||
| 04 | 15:54 | NW 50 G 63 | 16.09 | Fair and Windy | CLR | 16.7 | -5 | 22% | 75.08 | 1001.1 | |||||||
| 04 | 14:54 | W 52 G 65 | 6.44 | Fair and Windy | CLR | 17.8 | -5.6 | 20% | 75.08 | 1001.0 | |||||||
| 04 | 13:54 | W 44 G 56 | 8.05 | Fair with Haze and Windy | CLR | 18.9 | -2.2 | 24% | 75.06 | 1000.5 | |||||||
| 04 | 12:54 | W 28 G 48 | 11.27 | Fair | CLR | 19.4 | -1.1 | 19.4 | 12.2 | 25% | 74.96 | 999.2 | |||||
| 04 | 11:54 | NW 30 G 43 | 12.87 | A Few Clouds | FEW120 | 18.9 | 1.7 | 32% | 74.96 | 999.1 | |||||||
| 04 | 10:54 | W 30 G 44 | 11.27 | Fair | CLR | 18.3 | 3.9 | 39% | 74.93 | 998.7 | |||||||
| 04 | 09:54 | W 33 G 50 | 11.27 | Fair and Breezy | CLR | 18.3 | 3.9 | 39% | 74.96 | 999.0 | |||||||
| 04 | 08:54 | W 31 G 46 | 12.87 | Fair | CLR | 17.2 | 2.8 | 38% | 74.93 | 998.7 | |||||||
| 04 | 07:54 | SW 39 G 48 | 12.87 | A Few Clouds and Breezy | FEW110 | 14.4 | 2.2 | 44% | 74.83 | 997.4 | |||||||
| 04 | 06:54 | SW 26 | 14.48 | Fair | CLR | 12.2 | 1.1 | 12.2 | 7.2 | 47% | 74.85 | 997.6 | |||||
| 04 | 05:54 | SW 26 | 16.09 | Fair | CLR | 11.7 | 1.1 | 48% | 74.9 | 998.3 | |||||||
| 04 | 04:54 | SW 20 | 16.09 | Fair | CLR | 8.3 | 0.6 | 59% | 5 | 74.96 | 999.2 | ||||||
| 04 | 03:54 | S 19 | 16.09 | Fair | CLR | 8.3 | 0.6 | 59% | 6 | 75.03 | 1000.0 | ||||||
| 04 | 02:54 | S 17 | 16.09 | Fair | CLR | 7.8 | 0 | 58% | 5 | 75.11 | 1001.1 | ||||||
| 04 | 01:54 | S 19 | 16.09 | Fair | CLR | 8.3 | 0.6 | 59% | 6 | 75.16 | 1002.0 | ||||||
| 04 | 00:54 | S 15 | 16.09 | Fair | CLR | 7.8 | 0.6 | 20 | 7.8 | 61% | 6 | 75.23 | 1003.1 | ||||
| 03 | 23:54 | SW 13 | 16.09 | Fair | CLR | 9.4 | 0.6 | 55% | 8 | 75.31 | 1003.9 | ||||||
| 03 | 22:54 | SW 15 | 16.09 | Fair | CLR | 11.1 | 0 | 47% | 75.36 | 1004.7 | |||||||
| 03 | 21:54 | W 15 | 16.09 | Fair | CLR | 13.3 | 0 | 40% | 75.44 | 1005.6 | |||||||
| 03 | 20:54 | W 11 | 16.09 | Fair | CLR | 15.6 | -1.1 | 32% | 75.41 | 1005.1 | |||||||
| 03 | 19:54 | NW 15 | 14.48 | Fair | CLR | 17.8 | -1.1 | 28% | 75.41 | 1005.1 | |||||||
| 03 | 18:54 | NW 24 | 16.09 | Fair | CLR | 20 | -2.8 | 21.7 | 19.4 | 21% | 75.41 | 1005.4 | |||||
| 03 | 17:54 | W 26 G 41 | 16.09 | Fair | CLR | 21.1 | -1.7 | 22% | 75.41 | 1005.3 | |||||||
| 03 | 16:54 | NW 24 | 16.09 | Fair | CLR | 21.1 | -1.1 | 23% | 75.39 | 1005.0 | |||||||
| 03 | 15:54 | N 31 G 50 | 16.09 | Fair | CLR | 21.7 | 0 | 24% | 75.44 | 1005.4 | |||||||
| 03 | 14:54 | NW 28 G 48 | 14.48 | Fair | CLR | 21.1 | 0 | 25% | 75.44 | 1005.7 | |||||||
| 03 | 13:54 | NW 19 G 37 | 16.09 | Fair | CLR | 20.6 | 2.2 | 30% | 75.46 | 1005.8 | |||||||
| 03 | 12:54 | N 28 G 43 | 14.48 | Fair | CLR | 19.4 | 3.3 | 19.4 | 10 | 35% | 75.49 | 1006.3 | |||||
| 03 | 11:54 | NW 24 G 44 | 14.48 | Fair | CLR | 18.9 | 3.3 | 36% | 75.49 | 1006.2 | |||||||
| 03 | 10:54 | NW 17 | 14.48 | Fair | CLR | 17.2 | 2.8 | 38% | 75.46 | 1006.1 | |||||||
| 03 | 09:54 | W 20 | 14.48 | Fair | CLR | 15.6 | 1.1 | 38% | 75.46 | 1006.2 | |||||||
| 03 | 08:54 | SW 24 | 14.48 | Fair | CLR | 13.9 | 0.6 | 41% | 75.46 | 1006.1 | |||||||
| 03 | 07:54 | S 31 G 44 | 14.48 | Fair | CLR | 11.7 | 0.6 | 47% | 75.44 | 1005.9 | |||||||
| 03 | 06:54 | S 30 G 41 | 14.48 | Fair | CLR | 10 | 0 | 12.8 | 9.4 | 50% | 7 | 75.46 | 1006.1 | ||||
| 03 | 05:54 | S 26 | 16.09 | A Few Clouds | FEW100 | 10 | 1.1 | 54% | 7 | 75.46 | 1006.3 | ||||||
| 03 | 04:54 | S 35 | 14.48 | Light Rain and Breezy | SCT055 BKN070 OVC090 | 11.1 | 2.2 | 55% | 75.49 | 1006.4 | |||||||
| 03 | 03:54 | S 30 | 16.09 | Partly Cloudy | SCT095 SCT110 | 11.1 | -0.6 | 45% | 75.59 | 1007.8 | |||||||
| Date | Time (cdt) | Wind (kph) | Vis. (km) | Weather | Sky Cond. | Air | Dwpt | Max. | Min. | Relative Humidity | Wind Chill (°C) | Heat Index (°C) | altimeter (cm) | sea level (mb) | 1 hr | 3 hr | 6 hr |
| 6 hour | |||||||||||||||||
| Temperature (ºC) | Pressure | Precipitation (cm) | |||||||||||||||